sensor_id;sensor_type;location;lat;lon;timestamp;P1;durP1;ratioP1;P2;durP2;ratioP2
72728;SDS011;60843;52.062;4.508;2023-06-14T00:00:13;7.20;;;2.75;;
72728;SDS011;60843;52.062;4.508;2023-06-14T00:02:40;6.95;;;2.33;;
72728;SDS011;60843;52.062;4.508;2023-06-14T00:05:06;5.80;;;2.10;;
72728;SDS011;60843;52.062;4.508;2023-06-14T00:07:36;6.13;;;2.28;;
72728;SDS011;60843;52.062;4.508;2023-06-14T00:10:03;6.47;;;2.40;;
72728;SDS011;60843;52.062;4.508;2023-06-14T00:12:30;4.70;;;2.38;;
72728;SDS011;60843;52.062;4.508;2023-06-14T00:14:56;7.38;;;2.42;;
72728;SDS011;60843;52.062;4.508;2023-06-14T00:17:21;8.25;;;2.95;;
72728;SDS011;60843;52.062;4.508;2023-06-14T00:19:47;5.88;;;2.47;;
72728;SDS011;60843;52.062;4.508;2023-06-14T00:22:13;4.70;;;2.20;;
72728;SDS011;60843;52.062;4.508;2023-06-14T00:24:38;5.83;;;2.90;;
72728;SDS011;60843;52.062;4.508;2023-06-14T00:27:03;7.77;;;2.50;;
72728;SDS011;60843;52.062;4.508;2023-06-14T00:29:29;6.50;;;2.67;;
72728;SDS011;60843;52.062;4.508;2023-06-14T00:31:55;4.57;;;2.60;;
72728;SDS011;60843;52.062;4.508;2023-06-14T00:34:20;3.80;;;2.50;;
72728;SDS011;60843;52.062;4.508;2023-06-14T00:36:45;3.22;;;2.20;;
72728;SDS011;60843;52.062;4.508;2023-06-14T00:39:11;6.68;;;2.53;;
72728;SDS011;60843;52.062;4.508;2023-06-14T00:41:37;4.25;;;2.15;;
72728;SDS011;60843;52.062;4.508;2023-06-14T00:44:02;3.88;;;2.15;;
72728;SDS011;60843;52.062;4.508;2023-06-14T00:46:28;5.20;;;2.92;;
72728;SDS011;60843;52.062;4.508;2023-06-14T00:48:53;5.82;;;2.38;;
72728;SDS011;60843;52.062;4.508;2023-06-14T00:51:20;13.45;;;2.60;;
72728;SDS011;60843;52.062;4.508;2023-06-14T00:53:46;6.38;;;2.72;;
72728;SDS011;60843;52.062;4.508;2023-06-14T00:56:12;7.15;;;2.70;;
72728;SDS011;60843;52.062;4.508;2023-06-14T00:58:39;7.38;;;2.10;;
72728;SDS011;60843;52.062;4.508;2023-06-14T01:01:05;4.63;;;2.15;;
72728;SDS011;60843;52.062;4.508;2023-06-14T01:03:31;4.03;;;2.30;;
72728;SDS011;60843;52.062;4.508;2023-06-14T01:06:40;6.45;;;2.33;;
72728;SDS011;60843;52.062;4.508;2023-06-14T01:12:05;6.85;;;2.25;;
72728;SDS011;60843;52.062;4.508;2023-06-14T01:14:36;5.00;;;2.28;;
72728;SDS011;60843;52.062;4.508;2023-06-14T01:17:02;4.37;;;2.03;;
72728;SDS011;60843;52.062;4.508;2023-06-14T01:19:27;4.22;;;2.10;;
72728;SDS011;60843;52.062;4.508;2023-06-14T01:21:54;5.72;;;2.75;;
72728;SDS011;60843;52.062;4.508;2023-06-14T01:24:22;6.85;;;2.60;;
72728;SDS011;60843;52.062;4.508;2023-06-14T01:29:16;3.88;;;2.00;;
72728;SDS011;60843;52.062;4.508;2023-06-14T01:31:42;4.30;;;2.72;;
72728;SDS011;60843;52.062;4.508;2023-06-14T01:34:08;4.38;;;2.60;;
72728;SDS011;60843;52.062;4.508;2023-06-14T01:36:33;3.92;;;2.22;;
72728;SDS011;60843;52.062;4.508;2023-06-14T01:39:02;7.88;;;2.10;;
72728;SDS011;60843;52.062;4.508;2023-06-14T01:41:29;4.82;;;2.13;;
72728;SDS011;60843;52.062;4.508;2023-06-14T01:43:55;5.43;;;2.55;;
72728;SDS011;60843;52.062;4.508;2023-06-14T01:46:20;6.20;;;2.50;;
72728;SDS011;60843;52.062;4.508;2023-06-14T01:48:46;7.38;;;2.60;;
72728;SDS011;60843;52.062;4.508;2023-06-14T01:51:11;3.90;;;2.38;;
72728;SDS011;60843;52.062;4.508;2023-06-14T01:53:37;5.43;;;2.40;;
72728;SDS011;60843;52.062;4.508;2023-06-14T01:56:02;7.20;;;2.80;;
72728;SDS011;60843;52.062;4.508;2023-06-14T01:58:28;5.95;;;2.38;;
72728;SDS011;60843;52.062;4.508;2023-06-14T02:00:54;5.72;;;2.75;;
72728;SDS011;60843;52.062;4.508;2023-06-14T02:03:20;9.43;;;2.20;;
72728;SDS011;60843;52.062;4.508;2023-06-14T02:05:46;6.30;;;2.58;;
72728;SDS011;60843;52.062;4.508;2023-06-14T02:08:11;7.78;;;2.80;;
72728;SDS011;60843;52.062;4.508;2023-06-14T02:10:37;5.95;;;2.42;;
72728;SDS011;60843;52.062;4.508;2023-06-14T02:13:02;8.52;;;2.30;;
72728;SDS011;60843;52.062;4.508;2023-06-14T02:15:28;5.03;;;2.60;;
72728;SDS011;60843;52.062;4.508;2023-06-14T02:17:59;7.20;;;2.47;;
72728;SDS011;60843;52.062;4.508;2023-06-14T02:20:26;4.97;;;2.53;;
72728;SDS011;60843;52.062;4.508;2023-06-14T02:22:51;12.35;;;2.78;;
72728;SDS011;60843;52.062;4.508;2023-06-14T02:25:17;5.65;;;2.45;;
72728;SDS011;60843;52.062;4.508;2023-06-14T02:27:42;6.03;;;2.17;;
72728;SDS011;60843;52.062;4.508;2023-06-14T02:30:07;10.13;;;2.33;;
72728;SDS011;60843;52.062;4.508;2023-06-14T02:32:33;4.40;;;1.63;;
72728;SDS011;60843;52.062;4.508;2023-06-14T02:35:00;7.07;;;2.10;;
72728;SDS011;60843;52.062;4.508;2023-06-14T02:37:26;9.35;;;2.80;;
72728;SDS011;60843;52.062;4.508;2023-06-14T02:39:51;5.23;;;2.27;;
72728;SDS011;60843;52.062;4.508;2023-06-14T02:42:17;3.93;;;2.40;;
72728;SDS011;60843;52.062;4.508;2023-06-14T02:44:42;3.83;;;2.20;;
72728;SDS011;60843;52.062;4.508;2023-06-14T02:47:08;5.05;;;2.42;;
72728;SDS011;60843;52.062;4.508;2023-06-14T02:49:33;5.15;;;2.45;;
72728;SDS011;60843;52.062;4.508;2023-06-14T02:51:59;6.43;;;2.17;;
72728;SDS011;60843;52.062;4.508;2023-06-14T02:54:24;4.73;;;2.73;;
72728;SDS011;60843;52.062;4.508;2023-06-14T02:56:50;4.88;;;2.83;;
72728;SDS011;60843;52.062;4.508;2023-06-14T02:59:15;8.45;;;2.30;;
72728;SDS011;60843;52.062;4.508;2023-06-14T03:01:42;7.70;;;2.40;;
72728;SDS011;60843;52.062;4.508;2023-06-14T03:04:08;4.85;;;2.50;;
72728;SDS011;60843;52.062;4.508;2023-06-14T03:06:33;5.75;;;2.80;;
72728;SDS011;60843;52.062;4.508;2023-06-14T03:08:59;5.97;;;2.50;;
72728;SDS011;60843;52.062;4.508;2023-06-14T03:11:26;5.45;;;2.78;;
72728;SDS011;60843;52.062;4.508;2023-06-14T03:13:52;6.28;;;2.72;;
72728;SDS011;60843;52.062;4.508;2023-06-14T03:16:18;3.58;;;2.30;;
72728;SDS011;60843;52.062;4.508;2023-06-14T03:18:46;4.78;;;2.72;;
72728;SDS011;60843;52.062;4.508;2023-06-14T03:21:15;9.68;;;2.72;;
72728;SDS011;60843;52.062;4.508;2023-06-14T03:23:42;4.95;;;2.10;;
72728;SDS011;60843;52.062;4.508;2023-06-14T03:26:08;5.45;;;2.95;;
72728;SDS011;60843;52.062;4.508;2023-06-14T03:28:33;7.30;;;2.45;;
72728;SDS011;60843;52.062;4.508;2023-06-14T03:30:59;5.53;;;2.90;;
72728;SDS011;60843;52.062;4.508;2023-06-14T03:33:25;5.65;;;2.75;;
72728;SDS011;60843;52.062;4.508;2023-06-14T03:35:50;4.15;;;2.30;;
72728;SDS011;60843;52.062;4.508;2023-06-14T03:38:16;3.78;;;2.38;;
72728;SDS011;60843;52.062;4.508;2023-06-14T03:40:41;10.60;;;2.60;;
72728;SDS011;60843;52.062;4.508;2023-06-14T03:43:07;8.10;;;2.67;;
72728;SDS011;60843;52.062;4.508;2023-06-14T03:45:32;6.15;;;3.15;;
72728;SDS011;60843;52.062;4.508;2023-06-14T03:47:57;8.52;;;2.50;;
72728;SDS011;60843;52.062;4.508;2023-06-14T03:53:18;9.85;;;2.42;;
72728;SDS011;60843;52.062;4.508;2023-06-14T03:55:45;5.15;;;2.60;;
72728;SDS011;60843;52.062;4.508;2023-06-14T03:58:10;6.17;;;2.53;;
72728;SDS011;60843;52.062;4.508;2023-06-14T04:00:36;8.77;;;2.90;;
72728;SDS011;60843;52.062;4.508;2023-06-14T04:03:01;6.82;;;2.45;;
72728;SDS011;60843;52.062;4.508;2023-06-14T04:05:28;6.18;;;2.50;;
72728;SDS011;60843;52.062;4.508;2023-06-14T04:07:53;8.02;;;2.47;;
72728;SDS011;60843;52.062;4.508;2023-06-14T04:10:20;5.25;;;2.33;;
72728;SDS011;60843;52.062;4.508;2023-06-14T04:12:46;5.68;;;2.35;;
72728;SDS011;60843;52.062;4.508;2023-06-14T04:15:12;6.60;;;2.40;;
72728;SDS011;60843;52.062;4.508;2023-06-14T04:17:38;6.55;;;2.15;;
72728;SDS011;60843;52.062;4.508;2023-06-14T04:20:03;4.57;;;2.20;;
72728;SDS011;60843;52.062;4.508;2023-06-14T04:22:32;4.97;;;2.10;;
72728;SDS011;60843;52.062;4.508;2023-06-14T04:24:59;3.55;;;2.08;;
72728;SDS011;60843;52.062;4.508;2023-06-14T04:27:25;6.70;;;2.17;;
72728;SDS011;60843;52.062;4.508;2023-06-14T04:29:52;5.25;;;2.40;;
72728;SDS011;60843;52.062;4.508;2023-06-14T04:32:26;4.10;;;2.05;;
72728;SDS011;60843;52.062;4.508;2023-06-14T04:34:55;5.60;;;2.30;;
72728;SDS011;60843;52.062;4.508;2023-06-14T04:37:21;4.30;;;2.10;;
72728;SDS011;60843;52.062;4.508;2023-06-14T04:39:47;7.45;;;2.15;;
72728;SDS011;60843;52.062;4.508;2023-06-14T04:42:13;8.68;;;2.17;;
72728;SDS011;60843;52.062;4.508;2023-06-14T04:44:40;5.20;;;1.90;;
72728;SDS011;60843;52.062;4.508;2023-06-14T04:47:06;6.50;;;2.20;;
72728;SDS011;60843;52.062;4.508;2023-06-14T04:49:32;7.95;;;1.95;;
72728;SDS011;60843;52.062;4.508;2023-06-14T04:51:59;8.70;;;2.25;;
72728;SDS011;60843;52.062;4.508;2023-06-14T04:54:26;4.72;;;2.00;;
72728;SDS011;60843;52.062;4.508;2023-06-14T04:56:52;5.45;;;2.20;;
72728;SDS011;60843;52.062;4.508;2023-06-14T04:59:20;5.70;;;1.88;;
72728;SDS011;60843;52.062;4.508;2023-06-14T05:04:14;4.13;;;1.90;;
72728;SDS011;60843;52.062;4.508;2023-06-14T05:06:42;3.55;;;1.73;;
72728;SDS011;60843;52.062;4.508;2023-06-14T05:09:13;5.93;;;1.88;;
72728;SDS011;60843;52.062;4.508;2023-06-14T05:11:39;5.32;;;2.03;;
72728;SDS011;60843;52.062;4.508;2023-06-14T05:14:07;5.32;;;2.45;;
72728;SDS011;60843;52.062;4.508;2023-06-14T05:16:33;4.72;;;1.90;;
72728;SDS011;60843;52.062;4.508;2023-06-14T05:18:58;3.80;;;1.95;;
72728;SDS011;60843;52.062;4.508;2023-06-14T05:21:23;4.93;;;1.67;;
72728;SDS011;60843;52.062;4.508;2023-06-14T05:23:49;6.10;;;2.00;;
72728;SDS011;60843;52.062;4.508;2023-06-14T05:26:15;5.75;;;2.00;;
72728;SDS011;60843;52.062;4.508;2023-06-14T05:28:41;7.25;;;2.00;;
72728;SDS011;60843;52.062;4.508;2023-06-14T05:31:06;5.18;;;1.90;;
72728;SDS011;60843;52.062;4.508;2023-06-14T05:33:32;4.60;;;2.00;;
72728;SDS011;60843;52.062;4.508;2023-06-14T05:35:57;4.25;;;2.10;;
72728;SDS011;60843;52.062;4.508;2023-06-14T05:38:23;6.32;;;2.42;;
72728;SDS011;60843;52.062;4.508;2023-06-14T05:40:48;9.50;;;1.97;;
72728;SDS011;60843;52.062;4.508;2023-06-14T05:43:13;5.45;;;1.83;;
72728;SDS011;60843;52.062;4.508;2023-06-14T05:45:39;8.98;;;1.75;;
72728;SDS011;60843;52.062;4.508;2023-06-14T05:48:05;9.32;;;1.92;;
72728;SDS011;60843;52.062;4.508;2023-06-14T05:50:30;4.50;;;1.70;;
72728;SDS011;60843;52.062;4.508;2023-06-14T05:52:56;10.43;;;2.35;;
72728;SDS011;60843;52.062;4.508;2023-06-14T05:55:21;8.52;;;2.40;;
72728;SDS011;60843;52.062;4.508;2023-06-14T05:57:47;3.23;;;2.00;;
72728;SDS011;60843;52.062;4.508;2023-06-14T06:00:13;7.75;;;2.10;;
72728;SDS011;60843;52.062;4.508;2023-06-14T06:02:42;7.32;;;2.05;;
72728;SDS011;60843;52.062;4.508;2023-06-14T06:05:08;9.27;;;2.17;;
72728;SDS011;60843;52.062;4.508;2023-06-14T06:07:34;5.93;;;2.40;;
72728;SDS011;60843;52.062;4.508;2023-06-14T06:10:00;3.95;;;2.30;;
72728;SDS011;60843;52.062;4.508;2023-06-14T06:12:25;5.88;;;2.13;;
72728;SDS011;60843;52.062;4.508;2023-06-14T06:14:51;5.07;;;2.17;;
72728;SDS011;60843;52.062;4.508;2023-06-14T06:17:16;7.47;;;2.17;;
72728;SDS011;60843;52.062;4.508;2023-06-14T06:19:42;7.35;;;2.20;;
72728;SDS011;60843;52.062;4.508;2023-06-14T06:22:08;7.93;;;1.90;;
72728;SDS011;60843;52.062;4.508;2023-06-14T06:24:35;3.92;;;1.73;;
72728;SDS011;60843;52.062;4.508;2023-06-14T06:27:04;5.68;;;1.92;;
72728;SDS011;60843;52.062;4.508;2023-06-14T06:29:33;8.65;;;2.42;;
72728;SDS011;60843;52.062;4.508;2023-06-14T06:31:59;4.47;;;2.13;;
72728;SDS011;60843;52.062;4.508;2023-06-14T06:34:25;5.05;;;2.33;;
72728;SDS011;60843;52.062;4.508;2023-06-14T06:36:50;3.90;;;1.98;;
72728;SDS011;60843;52.062;4.508;2023-06-14T06:39:16;4.20;;;2.10;;
72728;SDS011;60843;52.062;4.508;2023-06-14T06:41:41;5.37;;;2.23;;
72728;SDS011;60843;52.062;4.508;2023-06-14T06:44:07;5.63;;;2.33;;
72728;SDS011;60843;52.062;4.508;2023-06-14T06:46:33;4.35;;;2.08;;
72728;SDS011;60843;52.062;4.508;2023-06-14T06:48:59;4.97;;;2.35;;
72728;SDS011;60843;52.062;4.508;2023-06-14T06:51:25;6.80;;;2.20;;
72728;SDS011;60843;52.062;4.508;2023-06-14T06:53:54;4.70;;;2.10;;
72728;SDS011;60843;52.062;4.508;2023-06-14T06:56:20;6.05;;;2.20;;
72728;SDS011;60843;52.062;4.508;2023-06-14T06:58:48;4.75;;;2.22;;
72728;SDS011;60843;52.062;4.508;2023-06-14T07:01:14;5.60;;;2.33;;
72728;SDS011;60843;52.062;4.508;2023-06-14T07:03:40;6.88;;;2.08;;
72728;SDS011;60843;52.062;4.508;2023-06-14T07:06:06;6.43;;;2.10;;
72728;SDS011;60843;52.062;4.508;2023-06-14T07:08:31;4.22;;;2.13;;
72728;SDS011;60843;52.062;4.508;2023-06-14T07:10:57;6.68;;;2.15;;
72728;SDS011;60843;52.062;4.508;2023-06-14T07:13:22;4.78;;;2.40;;
72728;SDS011;60843;52.062;4.508;2023-06-14T07:15:48;6.00;;;2.13;;
72728;SDS011;60843;52.062;4.508;2023-06-14T07:18:13;4.75;;;2.22;;
72728;SDS011;60843;52.062;4.508;2023-06-14T07:20:39;7.30;;;2.03;;
72728;SDS011;60843;52.062;4.508;2023-06-14T07:23:05;4.63;;;2.17;;
72728;SDS011;60843;52.062;4.508;2023-06-14T07:25:30;5.45;;;2.03;;
72728;SDS011;60843;52.062;4.508;2023-06-14T07:27:56;4.93;;;2.40;;
72728;SDS011;60843;52.062;4.508;2023-06-14T07:30:21;8.35;;;2.70;;
72728;SDS011;60843;52.062;4.508;2023-06-14T07:32:51;6.43;;;2.20;;
72728;SDS011;60843;52.062;4.508;2023-06-14T07:35:17;4.05;;;2.10;;
72728;SDS011;60843;52.062;4.508;2023-06-14T07:37:43;4.32;;;2.10;;
72728;SDS011;60843;52.062;4.508;2023-06-14T07:40:08;6.93;;;2.65;;
72728;SDS011;60843;52.062;4.508;2023-06-14T07:42:35;6.53;;;2.10;;
72728;SDS011;60843;52.062;4.508;2023-06-14T07:45:01;6.50;;;2.40;;
72728;SDS011;60843;52.062;4.508;2023-06-14T07:47:27;6.80;;;2.38;;
72728;SDS011;60843;52.062;4.508;2023-06-14T07:49:53;6.30;;;2.38;;
72728;SDS011;60843;52.062;4.508;2023-06-14T07:52:18;4.33;;;2.57;;
72728;SDS011;60843;52.062;4.508;2023-06-14T07:54:43;5.25;;;2.60;;
72728;SDS011;60843;52.062;4.508;2023-06-14T07:57:09;9.88;;;2.72;;
72728;SDS011;60843;52.062;4.508;2023-06-14T07:59:35;7.25;;;2.53;;
72728;SDS011;60843;52.062;4.508;2023-06-14T08:02:00;5.65;;;2.33;;
72728;SDS011;60843;52.062;4.508;2023-06-14T08:04:26;3.77;;;2.10;;
72728;SDS011;60843;52.062;4.508;2023-06-14T08:06:51;6.80;;;2.03;;
72728;SDS011;60843;52.062;4.508;2023-06-14T08:09:16;4.00;;;2.50;;
72728;SDS011;60843;52.062;4.508;2023-06-14T08:11:42;5.88;;;2.53;;
72728;SDS011;60843;52.062;4.508;2023-06-14T08:14:08;4.03;;;2.47;;
72728;SDS011;60843;52.062;4.508;2023-06-14T08:16:33;4.63;;;2.38;;
72728;SDS011;60843;52.062;4.508;2023-06-14T08:18:58;6.43;;;2.20;;
72728;SDS011;60843;52.062;4.508;2023-06-14T08:21:24;6.43;;;2.10;;
72728;SDS011;60843;52.062;4.508;2023-06-14T08:23:52;3.47;;;2.33;;
72728;SDS011;60843;52.062;4.508;2023-06-14T08:26:19;5.55;;;2.92;;
72728;SDS011;60843;52.062;4.508;2023-06-14T08:28:44;5.03;;;2.13;;
72728;SDS011;60843;52.062;4.508;2023-06-14T08:31:10;4.47;;;2.17;;
72728;SDS011;60843;52.062;4.508;2023-06-14T08:33:35;7.05;;;2.50;;
72728;SDS011;60843;52.062;4.508;2023-06-14T08:36:01;6.22;;;2.38;;
72728;SDS011;60843;52.062;4.508;2023-06-14T08:38:26;6.17;;;2.27;;
72728;SDS011;60843;52.062;4.508;2023-06-14T08:40:52;6.60;;;2.57;;
72728;SDS011;60843;52.062;4.508;2023-06-14T08:43:18;7.45;;;2.28;;
72728;SDS011;60843;52.062;4.508;2023-06-14T08:45:43;10.57;;;2.75;;
72728;SDS011;60843;52.062;4.508;2023-06-14T08:48:11;4.82;;;2.10;;
72728;SDS011;60843;52.062;4.508;2023-06-14T08:50:37;5.63;;;2.30;;
72728;SDS011;60843;52.062;4.508;2023-06-14T08:53:04;4.80;;;2.20;;
72728;SDS011;60843;52.062;4.508;2023-06-14T08:55:31;8.52;;;2.03;;
72728;SDS011;60843;52.062;4.508;2023-06-14T08:58:03;2.92;;;2.10;;
72728;SDS011;60843;52.062;4.508;2023-06-14T09:00:29;3.75;;;1.80;;
72728;SDS011;60843;52.062;4.508;2023-06-14T09:02:55;2.53;;;1.92;;
72728;SDS011;60843;52.062;4.508;2023-06-14T09:05:26;7.13;;;2.33;;
72728;SDS011;60843;52.062;4.508;2023-06-14T09:07:53;7.28;;;2.28;;
72728;SDS011;60843;52.062;4.508;2023-06-14T09:10:20;5.65;;;2.03;;
72728;SDS011;60843;52.062;4.508;2023-06-14T09:12:46;3.47;;;1.90;;
72728;SDS011;60843;52.062;4.508;2023-06-14T09:15:12;7.07;;;2.03;;
72728;SDS011;60843;52.062;4.508;2023-06-14T09:17:39;7.85;;;2.03;;
72728;SDS011;60843;52.062;4.508;2023-06-14T09:20:05;6.78;;;2.20;;
72728;SDS011;60843;52.062;4.508;2023-06-14T09:22:34;9.30;;;2.00;;
72728;SDS011;60843;52.062;4.508;2023-06-14T09:24:59;3.10;;;1.88;;
72728;SDS011;60843;52.062;4.508;2023-06-14T09:27:25;5.68;;;2.10;;
72728;SDS011;60843;52.062;4.508;2023-06-14T09:29:52;6.05;;;1.98;;
72728;SDS011;60843;52.062;4.508;2023-06-14T09:32:17;4.78;;;2.00;;
72728;SDS011;60843;52.062;4.508;2023-06-14T09:34:43;6.13;;;2.15;;
72728;SDS011;60843;52.062;4.508;2023-06-14T09:37:08;3.97;;;2.50;;
72728;SDS011;60843;52.062;4.508;2023-06-14T09:39:33;7.17;;;2.40;;
72728;SDS011;60843;52.062;4.508;2023-06-14T09:41:59;7.00;;;1.90;;
72728;SDS011;60843;52.062;4.508;2023-06-14T09:44:25;5.23;;;2.07;;
72728;SDS011;60843;52.062;4.508;2023-06-14T09:46:53;5.25;;;1.85;;
72728;SDS011;60843;52.062;4.508;2023-06-14T09:54:14;5.07;;;1.50;;
72728;SDS011;60843;52.062;4.508;2023-06-14T09:56:41;7.18;;;2.10;;
72728;SDS011;60843;52.062;4.508;2023-06-14T09:59:08;4.97;;;1.95;;
72728;SDS011;60843;52.062;4.508;2023-06-14T10:01:35;5.03;;;1.77;;
72728;SDS011;60843;52.062;4.508;2023-06-14T10:04:04;3.78;;;1.90;;
72728;SDS011;60843;52.062;4.508;2023-06-14T10:06:32;3.33;;;1.50;;
72728;SDS011;60843;52.062;4.508;2023-06-14T10:11:36;2.08;;;1.25;;
72728;SDS011;60843;52.062;4.508;2023-06-14T10:14:02;4.45;;;1.65;;
72728;SDS011;60843;52.062;4.508;2023-06-14T10:19:14;3.92;;;1.67;;
72728;SDS011;60843;52.062;4.508;2023-06-14T10:24:37;2.40;;;1.73;;
72728;SDS011;60843;52.062;4.508;2023-06-14T10:27:06;3.28;;;1.60;;
72728;SDS011;60843;52.062;4.508;2023-06-14T10:29:35;2.88;;;1.60;;
72728;SDS011;60843;52.062;4.508;2023-06-14T10:32:26;3.88;;;1.73;;
72728;SDS011;60843;52.062;4.508;2023-06-14T10:34:55;3.78;;;1.50;;
72728;SDS011;60843;52.062;4.508;2023-06-14T10:37:22;2.05;;;1.30;;
72728;SDS011;60843;52.062;4.508;2023-06-14T10:39:47;3.90;;;1.58;;
72728;SDS011;60843;52.062;4.508;2023-06-14T10:42:13;1.73;;;1.20;;
72728;SDS011;60843;52.062;4.508;2023-06-14T10:50:06;6.43;;;1.42;;
72728;SDS011;60843;52.062;4.508;2023-06-14T10:52:42;2.47;;;1.30;;
72728;SDS011;60843;52.062;4.508;2023-06-14T10:55:12;2.33;;;1.23;;
72728;SDS011;60843;52.062;4.508;2023-06-14T10:57:43;5.18;;;1.92;;
72728;SDS011;60843;52.062;4.508;2023-06-14T11:00:11;2.75;;;1.35;;
72728;SDS011;60843;52.062;4.508;2023-06-14T11:05:15;4.07;;;1.35;;
72728;SDS011;60843;52.062;4.508;2023-06-14T11:10:38;6.93;;;1.33;;
72728;SDS011;60843;52.062;4.508;2023-06-14T11:13:06;2.17;;;1.50;;
72728;SDS011;60843;52.062;4.508;2023-06-14T11:15:32;1.73;;;1.20;;
72728;SDS011;60843;52.062;4.508;2023-06-14T11:18:02;2.60;;;1.20;;
72728;SDS011;60843;52.062;4.508;2023-06-14T11:20:30;9.32;;;1.45;;
72728;SDS011;60843;52.062;4.508;2023-06-14T11:22:57;8.63;;;1.40;;
72728;SDS011;60843;52.062;4.508;2023-06-14T11:25:23;3.05;;;0.98;;
72728;SDS011;60843;52.062;4.508;2023-06-14T11:27:50;3.08;;;1.33;;
72728;SDS011;60843;52.062;4.508;2023-06-14T11:30:16;1.88;;;1.15;;
72728;SDS011;60843;52.062;4.508;2023-06-14T11:32:41;6.28;;;1.33;;
72728;SDS011;60843;52.062;4.508;2023-06-14T11:35:07;3.60;;;1.00;;
72728;SDS011;60843;52.062;4.508;2023-06-14T11:37:35;2.58;;;0.95;;
72728;SDS011;60843;52.062;4.508;2023-06-14T11:40:02;2.03;;;1.13;;
72728;SDS011;60843;52.062;4.508;2023-06-14T11:42:31;2.85;;;0.98;;
72728;SDS011;60843;52.062;4.508;2023-06-14T11:44:57;2.65;;;1.40;;
72728;SDS011;60843;52.062;4.508;2023-06-14T11:47:22;2.20;;;1.15;;
72728;SDS011;60843;52.062;4.508;2023-06-14T11:49:48;2.05;;;1.20;;
72728;SDS011;60843;52.062;4.508;2023-06-14T11:52:14;3.97;;;0.95;;
72728;SDS011;60843;52.062;4.508;2023-06-14T11:54:44;2.85;;;1.10;;
72728;SDS011;60843;52.062;4.508;2023-06-14T11:57:12;2.85;;;1.20;;
72728;SDS011;60843;52.062;4.508;2023-06-14T11:59:41;6.28;;;1.20;;
72728;SDS011;60843;52.062;4.508;2023-06-14T12:02:08;2.00;;;0.82;;
72728;SDS011;60843;52.062;4.508;2023-06-14T12:04:34;4.43;;;1.17;;
72728;SDS011;60843;52.062;4.508;2023-06-14T12:07:12;3.63;;;1.10;;
72728;SDS011;60843;52.062;4.508;2023-06-14T12:09:43;1.90;;;1.23;;
72728;SDS011;60843;52.062;4.508;2023-06-14T12:14:55;2.28;;;1.10;;
72728;SDS011;60843;52.062;4.508;2023-06-14T12:17:21;3.17;;;1.30;;
72728;SDS011;60843;52.062;4.508;2023-06-14T12:19:47;6.65;;;1.38;;
72728;SDS011;60843;52.062;4.508;2023-06-14T12:22:14;5.45;;;1.25;;
72728;SDS011;60843;52.062;4.508;2023-06-14T12:24:44;3.25;;;1.25;;
72728;SDS011;60843;52.062;4.508;2023-06-14T12:27:10;2.90;;;1.13;;
72728;SDS011;60843;52.062;4.508;2023-06-14T12:29:40;4.60;;;1.60;;
72728;SDS011;60843;52.062;4.508;2023-06-14T12:32:08;5.15;;;1.08;;
72728;SDS011;60843;52.062;4.508;2023-06-14T12:34:34;2.05;;;1.27;;
72728;SDS011;60843;52.062;4.508;2023-06-14T12:37:00;2.85;;;1.05;;
72728;SDS011;60843;52.062;4.508;2023-06-14T12:39:26;1.55;;;1.00;;
72728;SDS011;60843;52.062;4.508;2023-06-14T12:41:52;3.08;;;1.00;;
72728;SDS011;60843;52.062;4.508;2023-06-14T12:44:18;2.38;;;1.10;;
72728;SDS011;60843;52.062;4.508;2023-06-14T12:46:44;2.83;;;1.00;;
72728;SDS011;60843;52.062;4.508;2023-06-14T12:49:10;2.83;;;1.05;;
72728;SDS011;60843;52.062;4.508;2023-06-14T12:51:36;3.92;;;1.10;;
72728;SDS011;60843;52.062;4.508;2023-06-14T12:54:02;2.25;;;0.88;;
72728;SDS011;60843;52.062;4.508;2023-06-14T12:56:28;4.03;;;1.23;;
72728;SDS011;60843;52.062;4.508;2023-06-14T12:58:53;2.65;;;1.35;;
72728;SDS011;60843;52.062;4.508;2023-06-14T13:01:19;1.65;;;1.00;;
72728;SDS011;60843;52.062;4.508;2023-06-14T13:03:45;2.97;;;1.60;;
72728;SDS011;60843;52.062;4.508;2023-06-14T13:06:15;3.05;;;0.90;;
72728;SDS011;60843;52.062;4.508;2023-06-14T13:08:41;7.65;;;1.90;;
72728;SDS011;60843;52.062;4.508;2023-06-14T13:11:06;2.73;;;1.30;;
72728;SDS011;60843;52.062;4.508;2023-06-14T13:13:31;4.78;;;1.10;;
72728;SDS011;60843;52.062;4.508;2023-06-14T13:15:57;1.90;;;1.00;;
72728;SDS011;60843;52.062;4.508;2023-06-14T13:18:22;1.30;;;1.00;;
72728;SDS011;60843;52.062;4.508;2023-06-14T13:20:47;1.40;;;1.03;;
72728;SDS011;60843;52.062;4.508;2023-06-14T13:23:13;2.45;;;1.38;;
72728;SDS011;60843;52.062;4.508;2023-06-14T13:25:38;4.75;;;1.10;;
72728;SDS011;60843;52.062;4.508;2023-06-14T13:28:04;2.15;;;1.10;;
72728;SDS011;60843;52.062;4.508;2023-06-14T13:30:30;2.95;;;0.80;;
72728;SDS011;60843;52.062;4.508;2023-06-14T13:32:56;1.98;;;0.93;;
72728;SDS011;60843;52.062;4.508;2023-06-14T13:35:22;1.55;;;1.00;;
72728;SDS011;60843;52.062;4.508;2023-06-14T13:37:48;2.00;;;1.08;;
72728;SDS011;60843;52.062;4.508;2023-06-14T13:40:14;1.83;;;0.88;;
72728;SDS011;60843;52.062;4.508;2023-06-14T13:42:39;2.05;;;1.00;;
72728;SDS011;60843;52.062;4.508;2023-06-14T13:45:05;3.05;;;1.23;;
72728;SDS011;60843;52.062;4.508;2023-06-14T13:47:31;5.57;;;1.33;;
72728;SDS011;60843;52.062;4.508;2023-06-14T13:49:57;1.45;;;1.00;;
72728;SDS011;60843;52.062;4.508;2023-06-14T13:52:32;2.28;;;1.20;;
72728;SDS011;60843;52.062;4.508;2023-06-14T13:55:08;2.45;;;1.00;;
72728;SDS011;60843;52.062;4.508;2023-06-14T13:57:34;3.53;;;1.20;;
72728;SDS011;60843;52.062;4.508;2023-06-14T14:00:00;2.17;;;0.98;;
72728;SDS011;60843;52.062;4.508;2023-06-14T14:02:28;1.63;;;0.95;;
72728;SDS011;60843;52.062;4.508;2023-06-14T14:04:54;2.95;;;1.10;;
72728;SDS011;60843;52.062;4.508;2023-06-14T14:07:20;2.05;;;1.20;;
72728;SDS011;60843;52.062;4.508;2023-06-14T14:09:47;4.28;;;1.30;;
72728;SDS011;60843;52.062;4.508;2023-06-14T14:12:12;4.55;;;1.27;;
72728;SDS011;60843;52.062;4.508;2023-06-14T14:14:39;3.53;;;1.02;;
72728;SDS011;60843;52.062;4.508;2023-06-14T14:17:04;1.60;;;1.00;;
72728;SDS011;60843;52.062;4.508;2023-06-14T14:19:31;2.33;;;1.02;;
72728;SDS011;60843;52.062;4.508;2023-06-14T14:21:57;3.78;;;1.10;;
72728;SDS011;60843;52.062;4.508;2023-06-14T14:24:22;1.75;;;1.00;;
72728;SDS011;60843;52.062;4.508;2023-06-14T14:26:48;6.22;;;1.15;;
72728;SDS011;60843;52.062;4.508;2023-06-14T14:29:14;1.80;;;1.30;;
72728;SDS011;60843;52.062;4.508;2023-06-14T14:31:40;2.40;;;1.15;;
72728;SDS011;60843;52.062;4.508;2023-06-14T14:34:06;2.37;;;1.17;;
72728;SDS011;60843;52.062;4.508;2023-06-14T14:36:31;2.30;;;1.00;;
72728;SDS011;60843;52.062;4.508;2023-06-14T14:41:24;3.63;;;1.10;;
72728;SDS011;60843;52.062;4.508;2023-06-14T14:43:50;1.65;;;1.20;;
72728;SDS011;60843;52.062;4.508;2023-06-14T14:46:15;2.72;;;1.20;;
72728;SDS011;60843;52.062;4.508;2023-06-14T14:48:41;4.13;;;1.30;;
72728;SDS011;60843;52.062;4.508;2023-06-14T14:51:07;2.05;;;1.10;;
72728;SDS011;60843;52.062;4.508;2023-06-14T14:53:32;2.72;;;1.20;;
72728;SDS011;60843;52.062;4.508;2023-06-14T14:55:58;5.93;;;0.90;;
72728;SDS011;60843;52.062;4.508;2023-06-14T14:58:23;2.10;;;0.95;;
72728;SDS011;60843;52.062;4.508;2023-06-14T15:00:49;3.65;;;1.20;;
72728;SDS011;60843;52.062;4.508;2023-06-14T15:03:14;2.97;;;1.20;;
72728;SDS011;60843;52.062;4.508;2023-06-14T15:05:40;3.00;;;1.13;;
72728;SDS011;60843;52.062;4.508;2023-06-14T15:08:05;2.92;;;1.30;;
72728;SDS011;60843;52.062;4.508;2023-06-14T15:10:38;1.83;;;1.10;;
72728;SDS011;60843;52.062;4.508;2023-06-14T15:13:06;2.25;;;1.20;;
72728;SDS011;60843;52.062;4.508;2023-06-14T15:15:32;2.97;;;1.20;;
72728;SDS011;60843;52.062;4.508;2023-06-14T15:17:58;4.13;;;1.30;;
72728;SDS011;60843;52.062;4.508;2023-06-14T15:20:24;3.88;;;1.20;;
72728;SDS011;60843;52.062;4.508;2023-06-14T15:22:49;3.08;;;1.02;;